createdAt,value
2023-02-11T00:00:33.230Z,52.04
2023-02-11T00:01:32.239Z,43.28
2023-02-11T00:02:33.334Z,49.35
2023-02-11T00:03:32.378Z,49.08
2023-02-11T00:04:32.240Z,49.48
2023-02-11T00:05:32.215Z,47.22
2023-02-11T00:06:32.275Z,56.61
2023-02-11T00:07:32.225Z,57.68
2023-02-11T00:08:32.246Z,55.10
2023-02-11T00:09:32.223Z,44.09
2023-02-11T00:10:33.533Z,43.54
2023-02-11T00:11:32.189Z,54.24
2023-02-11T00:12:32.184Z,49.45
2023-02-11T00:13:32.161Z,43.30
2023-02-11T00:14:32.220Z,47.23
2023-02-11T00:15:32.141Z,51.99
2023-02-11T00:16:32.196Z,50.31
2023-02-11T00:17:32.131Z,44.99
2023-02-11T00:18:32.109Z,45.22
2023-02-11T00:19:33.935Z,53.43
2023-02-11T00:20:32.901Z,51.19
2023-02-11T00:21:32.159Z,43.05
2023-02-11T00:23:03.983Z,52.41
2023-02-11T00:23:32.041Z,64.02
2023-02-11T00:24:32.068Z,53.47
2023-02-11T00:25:32.056Z,50.53
2023-02-11T00:26:32.034Z,52.43
2023-02-11T00:27:32.032Z,50.11
2023-02-11T00:28:32.060Z,51.22
2023-02-11T00:29:32.054Z,55.68
2023-02-11T00:30:32.040Z,42.98
2023-02-11T00:31:32.087Z,47.58
2023-02-11T00:32:32.007Z,49.26
2023-02-11T00:33:32.988Z,50.62
2023-02-11T00:34:31.984Z,42.96
2023-02-11T00:35:31.977Z,43.84
2023-02-11T00:36:32.022Z,47.61
2023-02-11T00:37:31.969Z,42.82
2023-02-11T00:38:31.938Z,42.93
2023-02-11T00:39:31.937Z,44.52
2023-02-11T00:40:31.915Z,54.06
2023-02-11T00:41:31.918Z,59.16
2023-02-11T00:42:31.925Z,44.85
2023-02-11T00:43:31.888Z,52.04
2023-02-11T00:44:31.901Z,45.11
2023-02-11T00:45:31.896Z,56.85
2023-02-11T00:46:31.962Z,54.99
2023-02-11T00:47:31.928Z,52.27
2023-02-11T00:48:31.882Z,43.44
2023-02-11T00:49:31.868Z,48.80
2023-02-11T00:50:31.857Z,44.66
2023-02-11T00:51:31.859Z,51.41
2023-02-11T00:52:31.920Z,49.97
2023-02-11T00:53:31.828Z,59.30
2023-02-11T00:54:31.947Z,51.98
2023-02-11T00:55:31.808Z,62.16
2023-02-11T00:56:31.829Z,44.76
2023-02-11T00:57:31.837Z,60.18
2023-02-11T00:58:31.774Z,44.26
2023-02-11T00:59:31.887Z,46.28
2023-02-11T01:00:31.769Z,51.49
2023-02-11T01:01:31.820Z,45.87
2023-02-11T01:02:31.761Z,46.27
2023-02-11T01:03:31.750Z,50.83
2023-02-11T01:04:31.792Z,50.27
2023-02-11T01:05:31.805Z,55.32
2023-02-11T01:06:31.736Z,53.71
2023-02-11T01:07:31.713Z,48.70
2023-02-11T01:08:31.751Z,47.50
2023-02-11T01:09:31.730Z,55.91
2023-02-11T01:10:31.790Z,57.82
2023-02-11T01:11:31.752Z,56.29
2023-02-11T01:12:33.489Z,45.33
2023-02-11T01:13:31.685Z,53.83
2023-02-11T01:14:31.687Z,46.53
2023-02-11T01:15:31.700Z,58.17
2023-02-11T01:16:31.775Z,55.06
2023-02-11T01:17:31.658Z,45.41
2023-02-11T01:18:32.310Z,52.41
2023-02-11T01:19:31.640Z,47.75
2023-02-11T01:20:31.615Z,53.39
2023-02-11T01:21:31.691Z,50.06
2023-02-11T01:22:31.633Z,45.02
2023-02-11T01:23:31.636Z,54.21
2023-02-11T01:24:31.613Z,45.49
2023-02-11T01:25:31.607Z,47.49
2023-02-11T01:26:31.619Z,59.70
2023-02-11T01:27:31.570Z,50.25
2023-02-11T01:28:31.608Z,57.38
2023-02-11T01:29:31.554Z,63.18
2023-02-11T01:30:31.553Z,50.26
2023-02-11T01:31:31.696Z,59.34
2023-02-11T01:32:31.533Z,54.26
2023-02-11T01:33:31.538Z,52.81
2023-02-11T01:34:31.538Z,47.91
2023-02-11T01:35:31.504Z,54.84
2023-02-11T01:36:31.514Z,48.57
2023-02-11T01:37:31.565Z,58.74
2023-02-11T01:38:31.520Z,58.26
2023-02-11T01:39:31.501Z,54.11
2023-02-11T01:40:31.477Z,50.73
2023-02-11T01:41:31.453Z,50.06
2023-02-11T01:42:31.502Z,45.02
2023-02-11T01:43:31.495Z,42.84
2023-02-11T01:44:31.449Z,49.44
2023-02-11T01:45:31.468Z,51.30
2023-02-11T01:46:31.493Z,50.18
2023-02-11T01:47:31.422Z,45.24
2023-02-11T01:48:31.405Z,45.60
2023-02-11T01:49:31.523Z,48.60
2023-02-11T01:50:31.413Z,57.11
2023-02-11T01:51:31.383Z,53.49
2023-02-11T01:52:31.397Z,47.46
2023-02-11T01:53:31.397Z,48.80
2023-02-11T01:54:31.421Z,55.22
2023-02-11T01:55:31.377Z,45.02
2023-02-11T01:56:31.353Z,43.94
2023-02-11T01:57:31.361Z,50.34
2023-02-11T01:58:31.399Z,55.04
2023-02-11T01:59:31.339Z,60.44
2023-02-11T02:00:31.364Z,45.98
2023-02-11T02:01:31.430Z,58.95
2023-02-11T02:02:31.369Z,51.18
2023-02-11T02:03:31.315Z,48.21
2023-02-11T02:04:31.266Z,59.11
2023-02-11T02:05:32.276Z,47.68
2023-02-11T02:06:31.299Z,44.09
2023-02-11T02:07:31.260Z,48.64
2023-02-11T02:08:31.265Z,43.09
2023-02-11T02:09:31.272Z,47.19
2023-02-11T02:10:31.306Z,43.18
2023-02-11T02:11:31.264Z,44.14
2023-02-11T02:12:31.263Z,51.75
2023-02-11T02:13:31.271Z,51.96
2023-02-11T02:14:31.252Z,52.82
2023-02-11T02:15:31.190Z,44.08
2023-02-11T02:16:31.813Z,49.92
2023-02-11T02:17:31.175Z,52.03
2023-02-11T02:18:31.283Z,50.73
2023-02-11T02:19:31.272Z,44.47
2023-02-11T02:20:31.163Z,59.01
2023-02-11T02:21:31.168Z,48.96
2023-02-11T02:22:31.145Z,43.35
2023-02-11T02:23:31.152Z,43.32
2023-02-11T02:24:31.169Z,45.90
2023-02-11T02:25:31.162Z,51.38
2023-02-11T02:26:31.120Z,49.75
2023-02-11T02:27:31.173Z,45.00
2023-02-11T02:28:31.171Z,44.77
2023-02-11T02:29:31.085Z,42.78
2023-02-11T02:30:31.145Z,43.52
2023-02-11T02:31:31.120Z,53.79
2023-02-11T02:32:31.094Z,43.95
2023-02-11T02:33:31.074Z,50.05
2023-02-11T02:34:31.055Z,43.39
2023-02-11T02:35:31.039Z,42.72
2023-02-11T02:36:31.051Z,54.50
2023-02-11T02:37:31.073Z,49.40
2023-02-11T02:38:31.053Z,42.89
2023-02-11T02:39:31.009Z,43.15
2023-02-11T02:40:30.984Z,43.89
2023-02-11T02:41:32.011Z,49.18
2023-02-11T02:42:30.997Z,44.17
2023-02-11T02:43:31.034Z,43.11
2023-02-11T02:44:30.997Z,43.02
2023-02-11T02:45:30.993Z,43.22
2023-02-11T02:46:31.045Z,43.95
2023-02-11T02:47:30.958Z,55.20
2023-02-11T02:48:30.984Z,49.03
2023-02-11T02:49:30.933Z,49.47
2023-02-11T02:50:30.931Z,51.73
2023-02-11T02:51:30.930Z,49.10
2023-02-11T02:52:30.923Z,50.36
2023-02-11T02:53:30.964Z,48.88
2023-02-11T02:54:30.919Z,45.62
2023-02-11T02:55:30.896Z,55.80
2023-02-11T02:56:30.884Z,44.24
2023-02-11T02:57:30.879Z,49.69
2023-02-11T02:58:30.900Z,53.27
2023-02-11T02:59:30.893Z,50.86
2023-02-11T03:00:30.879Z,53.04
2023-02-11T03:01:30.840Z,51.37
2023-02-11T03:02:30.890Z,50.90
2023-02-11T03:03:30.858Z,45.56
2023-02-11T03:04:30.860Z,58.44
2023-02-11T03:05:30.848Z,54.09
2023-02-11T03:06:30.842Z,43.96
2023-02-11T03:07:31.042Z,48.65
2023-02-11T03:08:30.828Z,54.22
2023-02-11T03:09:30.801Z,44.07
2023-02-11T03:10:30.779Z,44.99
2023-02-11T03:11:30.832Z,46.25
2023-02-11T03:12:30.760Z,50.50
2023-02-11T03:13:30.752Z,43.73
2023-02-11T03:14:30.756Z,44.48
2023-02-11T03:15:30.730Z,47.26
2023-02-11T03:16:31.765Z,45.66
2023-02-11T03:17:30.764Z,44.90
2023-02-11T03:18:30.737Z,45.15
2023-02-11T03:19:30.725Z,45.25
2023-02-11T03:20:30.729Z,46.24
2023-02-11T03:21:30.697Z,51.72
2023-02-11T03:22:30.698Z,49.01
2023-02-11T03:23:30.736Z,50.32
2023-02-11T03:24:30.708Z,53.04
2023-02-11T03:25:30.728Z,53.72
2023-02-11T03:26:30.673Z,44.40
2023-02-11T03:27:30.645Z,43.17
2023-02-11T03:28:30.734Z,43.53
2023-02-11T03:29:30.647Z,42.84
2023-02-11T03:30:30.658Z,44.44
2023-02-11T03:31:30.730Z,49.04
2023-02-11T03:32:30.612Z,48.73
2023-02-11T03:33:30.613Z,49.04
2023-02-11T03:34:30.598Z,49.70
2023-02-11T03:35:30.623Z,43.92
2023-02-11T03:36:30.596Z,45.61
2023-02-11T03:37:30.581Z,43.67
2023-02-11T03:38:30.563Z,45.31
2023-02-11T03:39:30.583Z,57.86
2023-02-11T03:40:30.573Z,47.96
2023-02-11T03:41:30.574Z,50.63
2023-02-11T03:42:30.551Z,45.40
2023-02-11T03:43:30.541Z,44.79
2023-02-11T03:44:30.544Z,48.40
2023-02-11T03:45:30.605Z,52.25
2023-02-11T03:46:30.529Z,46.18
2023-02-11T03:47:30.522Z,50.45
2023-02-11T04:04:14.958Z,43.04
2023-02-11T04:05:16.075Z,44.53
2023-02-11T04:06:16.072Z,44.07
2023-02-11T04:07:16.071Z,50.10
2023-02-11T04:08:16.097Z,55.52
2023-02-11T04:09:16.102Z,46.73
2023-02-11T04:10:16.062Z,55.67
2023-02-11T04:11:16.084Z,58.36
2023-02-11T04:12:16.039Z,52.82
2023-02-11T04:13:16.079Z,59.70
2023-02-11T04:14:16.011Z,49.47
2023-02-11T04:15:16.045Z,55.75
2023-02-11T04:16:16.034Z,51.79
2023-02-11T04:17:16.009Z,44.71
2023-02-11T04:18:15.966Z,51.83
2023-02-11T04:19:15.970Z,53.00
2023-02-11T04:20:15.973Z,53.58
2023-02-11T04:21:15.962Z,60.12
2023-02-11T04:22:15.973Z,48.66
2023-02-11T04:23:15.954Z,50.46
2023-02-11T04:24:15.923Z,44.00
2023-02-11T04:25:15.961Z,59.84
2023-02-11T04:26:15.916Z,54.62
2023-02-11T04:27:15.910Z,52.99
2023-02-11T04:28:15.979Z,54.34
2023-02-11T04:29:15.915Z,57.41
2023-02-11T04:30:15.905Z,58.85
2023-02-11T04:31:16.038Z,57.99
2023-02-11T04:32:15.884Z,58.51
2023-02-11T04:33:15.971Z,51.71
2023-02-11T04:34:15.862Z,57.23
2023-02-11T04:35:15.855Z,55.27
2023-02-11T04:36:15.862Z,57.65
2023-02-11T04:37:15.839Z,49.87
2023-02-11T04:38:15.840Z,51.17
2023-02-11T04:39:15.812Z,50.46
2023-02-11T04:40:15.793Z,62.99
2023-02-11T04:41:15.814Z,54.95
2023-02-11T04:42:15.825Z,58.99
2023-02-11T04:43:15.780Z,51.90
2023-02-11T04:44:15.766Z,56.00
2023-02-11T04:45:15.802Z,57.89
2023-02-11T04:46:15.884Z,51.74
2023-02-11T04:47:15.758Z,52.11
2023-02-11T04:48:15.782Z,46.83
2023-02-11T04:49:15.744Z,43.31
2023-02-11T04:50:15.726Z,48.96
2023-02-11T04:51:15.754Z,43.40
2023-02-11T04:52:15.710Z,51.58
2023-02-11T04:53:15.712Z,50.17
2023-02-11T04:54:15.707Z,52.76
2023-02-11T04:55:15.689Z,48.75
2023-02-11T04:56:15.688Z,46.73
2023-02-11T04:57:15.677Z,51.87
2023-02-11T04:58:15.727Z,58.24
2023-02-11T04:59:15.750Z,51.67
2023-02-11T05:00:15.678Z,58.88
2023-02-11T05:01:15.671Z,46.06
2023-02-11T05:02:15.660Z,56.15
2023-02-11T05:03:15.605Z,54.94
2023-02-11T05:04:15.680Z,54.56
2023-02-11T05:05:15.618Z,52.66
2023-02-11T05:06:15.601Z,45.51
2023-02-11T05:07:15.633Z,51.02
2023-02-11T05:08:15.602Z,51.04
2023-02-11T05:09:15.578Z,44.98
2023-02-11T05:10:15.603Z,50.49
2023-02-11T05:11:15.559Z,57.98
2023-02-11T05:12:15.572Z,44.54
2023-02-11T05:13:15.555Z,56.04
2023-02-11T05:14:15.540Z,46.16
2023-02-11T05:15:15.554Z,58.51
2023-02-11T05:16:15.561Z,45.09
2023-02-11T05:17:15.531Z,43.56
2023-02-11T05:18:15.522Z,46.33
2023-02-11T05:19:15.518Z,58.47
2023-02-11T05:20:15.506Z,55.27
2023-02-11T05:21:15.483Z,54.35
2023-02-11T05:22:15.479Z,45.10
2023-02-11T05:23:15.470Z,54.18
2023-02-11T05:24:15.458Z,43.36
2023-02-11T05:25:15.487Z,49.80
2023-02-11T05:26:15.449Z,54.89
2023-02-11T05:27:15.444Z,52.15
2023-02-11T05:28:15.500Z,46.50
2023-02-11T05:29:15.432Z,50.36
2023-02-11T05:30:15.456Z,49.53
2023-02-11T05:31:15.824Z,56.40
2023-02-11T05:32:15.406Z,52.22
2023-02-11T05:33:15.411Z,61.83
2023-02-11T05:34:15.410Z,44.42
2023-02-11T05:35:15.390Z,49.79
2023-02-11T05:36:15.425Z,46.37
2023-02-11T05:37:15.399Z,51.67
2023-02-11T05:38:15.364Z,49.79
2023-02-11T05:39:15.350Z,50.20
2023-02-11T05:40:15.350Z,56.01
2023-02-11T05:41:16.367Z,60.21
2023-02-11T05:42:15.324Z,57.80
2023-02-11T05:43:15.321Z,58.67
2023-02-11T05:44:15.333Z,47.00
2023-02-11T05:45:15.307Z,50.30
2023-02-11T05:46:15.329Z,50.90
2023-02-11T05:47:16.301Z,48.92
2023-02-11T05:48:15.299Z,56.82
2023-02-11T05:49:15.267Z,46.51
2023-02-11T05:50:15.311Z,57.72
2023-02-11T05:51:15.283Z,53.31
2023-02-11T05:52:15.772Z,55.31
2023-02-11T05:53:15.240Z,49.76
2023-02-11T05:54:15.264Z,55.45
2023-02-11T05:55:15.239Z,54.16
2023-02-11T05:56:15.244Z,49.53
2023-02-11T05:57:15.305Z,46.85
2023-02-11T05:58:15.226Z,57.70
2023-02-11T05:59:15.226Z,52.38
2023-02-11T06:00:15.196Z,55.00
2023-02-11T06:01:15.180Z,60.42
2023-02-11T06:02:15.205Z,52.77
2023-02-11T06:03:15.197Z,59.54
2023-02-11T06:04:15.169Z,46.56
2023-02-11T06:05:15.185Z,50.12
2023-02-11T06:06:15.166Z,49.18
2023-02-11T06:07:15.117Z,53.82
2023-02-11T06:08:15.117Z,45.88
2023-02-11T06:09:15.119Z,60.32
2023-02-11T06:10:15.140Z,52.10
2023-02-11T06:11:15.110Z,52.17
2023-02-11T06:12:15.090Z,54.90
2023-02-11T06:13:15.101Z,48.11
2023-02-11T06:14:15.135Z,51.68
2023-02-11T06:15:15.098Z,58.74
2023-02-11T06:16:15.133Z,56.38
2023-02-11T06:17:15.783Z,58.15
2023-02-11T06:18:16.068Z,60.48
2023-02-11T06:19:15.069Z,62.93
2023-02-11T06:20:15.051Z,55.51
2023-02-11T06:21:15.073Z,51.30
2023-02-11T06:22:15.023Z,55.41
2023-02-11T06:23:15.007Z,56.95
2023-02-11T06:24:17.431Z,58.73
2023-02-11T06:25:15.000Z,63.47
2023-02-11T06:26:15.006Z,46.56
2023-02-11T06:27:14.990Z,58.09
2023-02-11T06:28:15.053Z,58.57
2023-02-11T06:29:14.986Z,52.74
2023-02-11T06:30:14.990Z,63.61
2023-02-11T06:31:15.214Z,58.80
2023-02-11T06:32:37.043Z,56.51
2023-02-11T06:33:16.997Z,49.46
2023-02-11T06:34:14.952Z,60.84
2023-02-11T06:35:15.012Z,44.80
2023-02-11T06:36:14.955Z,50.41
2023-02-11T06:37:14.922Z,49.48
2023-02-11T06:38:14.973Z,62.06
2023-02-11T06:39:14.912Z,58.82
2023-02-11T06:40:14.902Z,49.97
2023-02-11T06:41:14.882Z,57.95
2023-02-11T06:42:14.891Z,60.82
2023-02-11T06:43:14.883Z,61.36
2023-02-11T06:44:14.863Z,60.64
2023-02-11T06:45:15.847Z,62.54
2023-02-11T06:46:14.943Z,64.62
2023-02-11T06:47:14.859Z,54.84
2023-02-11T06:48:14.863Z,63.66
2023-02-11T06:49:14.826Z,60.56
2023-02-11T06:50:14.826Z,55.08
2023-02-11T06:51:14.831Z,57.61
2023-02-11T06:52:14.807Z,59.98
2023-02-11T06:53:14.827Z,57.34
2023-02-11T06:54:14.827Z,54.00
2023-02-11T06:55:14.817Z,57.49
2023-02-11T06:56:14.770Z,54.58
2023-02-11T06:57:14.778Z,54.26
2023-02-11T06:58:14.780Z,59.67
2023-02-11T06:59:14.782Z,56.42
2023-02-11T07:00:14.790Z,52.26
2023-02-11T07:01:14.745Z,53.24
2023-02-11T07:02:14.835Z,57.47
2023-02-11T07:03:14.801Z,56.09
2023-02-11T07:04:14.728Z,56.20
2023-02-11T07:05:14.703Z,58.79
2023-02-11T07:06:14.745Z,63.85
2023-02-11T07:07:14.690Z,61.70
2023-02-11T07:08:14.713Z,47.06
2023-02-11T07:09:14.695Z,59.32
2023-02-11T07:10:14.700Z,55.58
2023-02-11T07:11:14.678Z,54.37
2023-02-11T07:12:14.646Z,60.88
2023-02-11T07:13:14.643Z,50.81
2023-02-11T07:14:14.687Z,54.32
2023-02-11T07:15:14.653Z,47.92
2023-02-11T07:16:14.728Z,57.72
2023-02-11T07:17:14.643Z,54.61
2023-02-11T07:18:14.834Z,52.87
2023-02-11T07:19:16.173Z,53.21
2023-02-11T07:20:14.703Z,60.67
2023-02-11T07:21:14.578Z,64.71
2023-02-11T07:22:14.587Z,53.03
2023-02-11T07:23:14.606Z,60.89
2023-02-11T07:24:14.570Z,54.34
2023-02-11T07:25:15.167Z,49.85
2023-02-11T07:26:14.545Z,61.09
2023-02-11T07:27:15.551Z,64.58
2023-02-11T07:28:14.637Z,63.09
2023-02-11T07:29:14.546Z,63.42
2023-02-11T07:30:14.518Z,52.09
2023-02-11T07:31:14.701Z,61.63
2023-02-11T07:32:14.567Z,62.72
2023-02-11T07:33:14.506Z,57.65
2023-02-11T07:34:14.526Z,64.91
2023-02-11T07:35:14.503Z,67.25
2023-02-11T07:36:14.532Z,62.37
2023-02-11T07:37:14.471Z,60.11
2023-02-11T07:38:14.482Z,63.93
2023-02-11T07:39:14.499Z,54.87
2023-02-11T07:40:14.436Z,66.92
2023-02-11T07:41:14.451Z,52.29
2023-02-11T07:42:14.425Z,64.70
2023-02-11T07:43:14.438Z,62.83
2023-02-11T07:44:14.446Z,60.83
2023-02-11T07:45:14.409Z,60.07
2023-02-11T07:46:14.437Z,60.12
2023-02-11T07:47:14.394Z,59.51
2023-02-11T07:48:14.387Z,53.24
2023-02-11T07:49:14.380Z,58.80
2023-02-11T07:50:14.430Z,66.36
2023-02-11T07:51:14.397Z,62.63
2023-02-11T07:52:14.361Z,68.94
2023-02-11T07:53:14.344Z,57.82
2023-02-11T07:54:15.194Z,55.76
2023-02-11T07:55:14.378Z,64.00
2023-02-11T07:56:14.344Z,56.97
2023-02-11T07:57:14.344Z,64.02
2023-02-11T07:58:14.339Z,68.32
2023-02-11T07:59:14.315Z,68.70
2023-02-11T08:00:14.305Z,65.76
2023-02-11T08:01:14.421Z,59.63
2023-02-11T08:02:14.344Z,54.86
2023-02-11T08:03:14.276Z,65.08
2023-02-11T08:04:14.292Z,63.49
2023-02-11T08:05:14.245Z,63.04
2023-02-11T08:06:14.331Z,64.05
2023-02-11T08:07:14.256Z,57.79
2023-02-11T08:08:14.286Z,60.99
2023-02-11T08:09:14.243Z,66.35
2023-02-11T08:10:14.238Z,63.34
2023-02-11T08:11:14.221Z,65.27
2023-02-11T08:12:14.250Z,62.95
2023-02-11T08:13:14.201Z,65.07
2023-02-11T08:14:14.191Z,64.47
2023-02-11T08:15:14.209Z,58.54
2023-02-11T08:16:14.210Z,66.72
2023-02-11T08:17:14.248Z,69.20
2023-02-11T08:18:15.212Z,63.50
2023-02-11T08:19:14.160Z,61.68
2023-02-11T08:20:14.150Z,69.29
2023-02-11T08:21:14.132Z,59.23
2023-02-11T08:22:14.185Z,65.71
2023-02-11T08:23:14.131Z,57.76
2023-02-11T08:24:14.686Z,64.09
2023-02-11T08:25:14.127Z,64.14
2023-02-11T08:26:14.117Z,66.50
2023-02-11T08:27:14.165Z,68.98
2023-02-11T08:28:14.145Z,62.70
2023-02-11T08:29:14.141Z,67.94
2023-02-11T08:30:14.073Z,67.30
2023-02-11T08:31:14.142Z,61.29
2023-02-11T08:32:14.124Z,68.73
2023-02-11T08:33:14.075Z,67.21
2023-02-11T08:34:14.139Z,63.21
2023-02-11T08:35:14.071Z,60.30
2023-02-11T08:36:14.063Z,68.34
2023-02-11T08:37:14.038Z,68.53
2023-02-11T08:38:14.060Z,69.58
2023-02-11T08:39:19.740Z,66.65
2023-02-11T08:40:16.039Z,66.89
2023-02-11T08:41:14.779Z,68.92
2023-02-11T08:42:14.001Z,65.05
2023-02-11T08:43:13.984Z,66.19
2023-02-11T08:44:14.027Z,63.45
2023-02-11T08:45:13.964Z,69.00
2023-02-11T08:46:14.033Z,65.98
2023-02-11T08:47:13.972Z,65.63
2023-02-11T08:48:13.937Z,67.99
2023-02-11T08:49:13.950Z,65.04
2023-02-11T08:50:13.953Z,61.70
2023-02-11T08:51:13.937Z,66.46
2023-02-11T08:52:13.936Z,68.27
2023-02-11T08:53:13.969Z,67.41
2023-02-11T08:54:13.919Z,63.15
2023-02-11T08:55:13.923Z,66.14
2023-02-11T08:56:13.937Z,70.49
2023-02-11T08:57:13.918Z,65.56
2023-02-11T08:58:13.871Z,61.47
2023-02-11T08:59:13.898Z,69.05
2023-02-11T09:00:14.740Z,60.03
2023-02-11T09:01:14.702Z,67.84
2023-02-11T09:02:13.940Z,61.08
2023-02-11T09:03:13.844Z,65.91
2023-02-11T09:04:13.841Z,61.63
2023-02-11T09:05:13.820Z,63.47
2023-02-11T09:06:14.819Z,68.48
2023-02-11T09:07:13.823Z,66.77
2023-02-11T09:08:13.837Z,63.33
2023-02-11T09:09:13.804Z,67.58
2023-02-11T09:10:13.817Z,63.31
2023-02-11T09:11:13.799Z,67.69
2023-02-11T09:12:13.818Z,64.26
2023-02-11T09:13:13.783Z,67.28
2023-02-11T09:14:13.799Z,66.33
2023-02-11T09:15:14.669Z,67.99
2023-02-11T09:16:13.758Z,62.57
2023-02-11T09:17:13.750Z,65.18
2023-02-11T09:18:13.728Z,66.57
2023-02-11T09:19:13.726Z,63.62
2023-02-11T09:20:13.735Z,65.73
2023-02-11T09:21:13.676Z,68.83
2023-02-11T09:22:13.712Z,65.72
2023-02-11T09:23:13.684Z,63.35
2023-02-11T09:24:13.667Z,68.87
2023-02-11T09:25:45.557Z,68.37
2023-02-11T09:26:45.635Z,63.96
2023-02-11T09:27:45.567Z,69.06
2023-02-11T09:28:13.696Z,58.56
2023-02-11T09:29:45.660Z,67.75
2023-02-11T09:30:14.293Z,66.38
2023-02-11T09:31:45.582Z,64.55
2023-02-11T09:32:45.529Z,69.22
2023-02-11T09:33:45.502Z,62.58
2023-02-11T09:34:45.548Z,67.73
2023-02-11T09:35:13.594Z,57.95
2023-02-11T09:36:45.483Z,69.04
2023-02-11T09:37:13.573Z,68.86
2023-02-11T09:38:13.581Z,64.30
2023-02-11T09:39:13.556Z,67.81
2023-02-11T09:40:45.497Z,67.73
2023-02-11T09:41:13.587Z,71.25
2023-02-11T09:42:45.465Z,68.11
2023-02-11T09:43:13.528Z,61.06
2023-02-11T09:44:45.438Z,65.54
2023-02-11T09:45:13.517Z,66.63
2023-02-11T09:46:45.462Z,64.68
2023-02-11T09:47:13.518Z,71.53
2023-02-11T09:48:45.433Z,65.57
2023-02-11T09:49:13.473Z,67.16
2023-02-11T09:50:45.392Z,66.41
2023-02-11T09:51:13.471Z,67.72
2023-02-11T09:52:45.425Z,66.93
2023-02-11T09:53:13.481Z,64.44
2023-02-11T09:54:45.361Z,69.20
2023-02-11T09:55:45.356Z,67.66
2023-02-11T09:56:13.464Z,65.31
2023-02-11T09:57:45.550Z,62.73
2023-02-11T09:58:45.418Z,58.33
2023-02-11T09:59:13.446Z,69.21
2023-02-11T10:00:13.438Z,66.51
2023-02-11T10:01:13.470Z,66.53
2023-02-11T10:02:13.405Z,66.06
2023-02-11T10:03:13.425Z,66.53
2023-02-11T10:04:13.419Z,57.58
2023-02-11T10:05:13.414Z,68.16
2023-02-11T10:06:13.376Z,67.36
2023-02-11T10:07:13.465Z,68.70
2023-02-11T10:08:16.824Z,58.88
2023-02-11T10:09:14.360Z,67.89
2023-02-11T10:10:13.341Z,68.21
2023-02-11T10:11:25.998Z,67.52
2023-02-11T10:12:15.323Z,65.33
2023-02-11T10:13:13.325Z,67.74
2023-02-11T10:14:13.304Z,60.63
2023-02-11T10:15:13.316Z,66.00
2023-02-11T10:16:13.331Z,68.32
2023-02-11T10:17:13.283Z,64.40
2023-02-11T10:18:13.268Z,62.17
2023-02-11T10:19:13.267Z,70.12
2023-02-11T10:20:16.724Z,67.45
2023-02-11T10:21:14.267Z,66.73
2023-02-11T10:22:13.279Z,66.79
2023-02-11T10:23:13.270Z,64.80
2023-02-11T10:24:13.244Z,64.60
2023-02-11T10:25:13.273Z,65.90
2023-02-11T10:26:13.235Z,67.26
2023-02-11T10:27:13.216Z,61.31
2023-02-11T10:28:13.220Z,65.31
2023-02-11T10:29:13.197Z,63.15
2023-02-11T10:30:13.201Z,61.69
2023-02-11T10:31:13.273Z,69.24
2023-02-11T10:32:13.333Z,65.39
2023-02-11T10:33:13.244Z,68.78
2023-02-11T10:34:13.203Z,65.30
2023-02-11T10:35:13.195Z,65.79
2023-02-11T10:36:13.220Z,70.55
2023-02-11T10:37:13.252Z,60.18
2023-02-11T10:38:13.210Z,65.43
2023-02-11T10:39:13.142Z,65.23
2023-02-11T10:40:13.145Z,68.45
2023-02-11T10:41:13.141Z,68.98
2023-02-11T10:42:13.109Z,65.97
2023-02-11T10:43:13.082Z,66.51
2023-02-11T10:44:13.068Z,66.29
2023-02-11T10:45:13.171Z,57.79
2023-02-11T10:46:13.070Z,69.48
2023-02-11T10:47:13.062Z,68.08
2023-02-11T10:48:15.550Z,67.85
2023-02-11T10:49:13.090Z,67.27
2023-02-11T10:50:13.063Z,66.64
2023-02-11T10:51:14.540Z,65.92
2023-02-11T10:52:14.032Z,67.85
2023-02-11T10:53:13.040Z,64.20
2023-02-11T10:54:13.859Z,68.76
2023-02-11T10:55:13.983Z,68.03
2023-02-11T10:56:13.057Z,64.59
2023-02-11T10:57:12.974Z,66.25
2023-02-11T10:58:13.002Z,65.40
2023-02-11T10:59:12.960Z,65.93
2023-02-11T11:00:13.200Z,67.78
2023-02-11T11:01:23.975Z,63.84
2023-02-11T11:02:15.014Z,68.42
2023-02-11T11:03:13.035Z,66.78
2023-02-11T11:04:13.017Z,64.32
2023-02-11T11:05:12.910Z,63.75
2023-02-11T11:06:12.926Z,69.67
2023-02-11T11:07:13.035Z,66.22
2023-02-11T11:08:12.906Z,70.29
2023-02-11T11:09:13.029Z,68.21
2023-02-11T11:10:12.935Z,60.57
2023-02-11T11:11:12.884Z,67.89
2023-02-11T11:12:12.927Z,68.40
2023-02-11T11:13:13.005Z,68.57
2023-02-11T11:14:12.873Z,66.04
2023-02-11T11:15:12.921Z,60.74
2023-02-11T11:16:12.901Z,65.15
2023-02-11T11:17:12.822Z,64.80
2023-02-11T11:18:21.331Z,66.76
2023-02-11T11:19:14.848Z,66.13
2023-02-11T11:20:12.931Z,64.49
2023-02-11T11:21:12.802Z,68.41
2023-02-11T11:22:12.863Z,63.99
2023-02-11T11:23:12.843Z,64.32
2023-02-11T11:24:12.800Z,66.42
2023-02-11T11:25:12.917Z,66.89
2023-02-11T11:26:12.794Z,57.06
2023-02-11T11:27:12.754Z,68.08
2023-02-11T11:28:12.839Z,64.53
2023-02-11T11:29:12.752Z,67.68
2023-02-11T11:30:12.940Z,61.33
2023-02-11T11:31:12.842Z,65.89
2023-02-11T11:32:12.836Z,64.62
2023-02-11T11:33:12.746Z,65.09
2023-02-11T11:34:12.679Z,67.97
2023-02-11T11:35:12.699Z,59.92
2023-02-11T11:36:12.737Z,68.77
2023-02-11T11:37:12.674Z,70.59
2023-02-11T11:38:12.870Z,66.84
2023-02-11T11:39:12.675Z,69.20
2023-02-11T11:40:12.773Z,60.47
2023-02-11T11:41:12.836Z,66.38
2023-02-11T11:42:12.676Z,64.59
2023-02-11T11:43:12.634Z,67.45
2023-02-11T11:44:13.597Z,66.31
2023-02-11T11:45:12.682Z,64.00
2023-02-11T11:46:13.157Z,63.47
2023-02-11T11:47:12.703Z,63.82
2023-02-11T11:48:12.592Z,67.00
2023-02-11T11:49:12.551Z,58.60
2023-02-11T11:50:12.564Z,68.64
2023-02-11T11:51:12.574Z,63.82
2023-02-11T11:52:12.614Z,65.61
2023-02-11T11:53:12.546Z,69.06
2023-02-11T11:54:12.629Z,66.53
2023-02-11T11:55:12.543Z,64.56
2023-02-11T11:56:12.688Z,61.86
2023-02-11T11:57:12.506Z,63.64
2023-02-11T11:58:12.569Z,66.75
2023-02-11T11:59:12.503Z,66.72
2023-02-11T12:00:12.496Z,64.77
2023-02-11T12:01:12.535Z,64.61
2023-02-11T12:02:12.599Z,67.41
2023-02-11T12:03:12.514Z,67.03
2023-02-11T12:04:12.494Z,68.30
2023-02-11T12:05:12.438Z,66.60
2023-02-11T12:06:12.495Z,62.66
2023-02-11T12:07:12.434Z,63.05
2023-02-11T12:08:12.442Z,68.99
2023-02-11T12:09:12.547Z,66.09
2023-02-11T12:10:12.396Z,64.90
2023-02-11T12:11:12.448Z,68.51
2023-02-11T12:12:12.386Z,66.14
2023-02-11T12:13:12.411Z,66.56
2023-02-11T12:14:12.392Z,65.82
2023-02-11T12:15:12.459Z,65.03
2023-02-11T12:16:13.922Z,67.16
2023-02-11T12:17:12.350Z,66.27
2023-02-11T12:18:12.384Z,59.62
2023-02-11T12:19:12.356Z,67.55
2023-02-11T12:20:12.378Z,66.28
2023-02-11T12:21:12.357Z,68.12
2023-02-11T12:22:12.366Z,66.20
2023-02-11T12:23:44.247Z,67.83
2023-02-11T12:24:12.326Z,61.27
2023-02-11T12:25:12.308Z,63.45
2023-02-11T12:26:12.295Z,67.35
2023-02-11T12:27:12.298Z,59.06
2023-02-11T12:28:12.333Z,65.14
2023-02-11T12:29:12.272Z,66.83
2023-02-11T12:30:12.263Z,59.68
2023-02-11T12:31:13.290Z,63.48
2023-02-11T12:32:13.381Z,67.47
2023-02-11T12:33:12.242Z,66.01
2023-02-11T12:34:12.246Z,64.89
2023-02-11T12:35:12.257Z,65.85
2023-02-11T12:36:12.241Z,62.67
2023-02-11T12:37:12.231Z,62.58
2023-02-11T12:38:12.222Z,67.20
2023-02-11T12:39:12.210Z,69.00
2023-02-11T12:40:12.198Z,62.07
2023-02-11T12:41:12.223Z,64.62
2023-02-11T12:42:12.217Z,66.63
2023-02-11T12:43:12.179Z,65.28
2023-02-11T12:44:12.157Z,65.90
2023-02-11T12:45:12.227Z,65.45
2023-02-11T12:46:12.247Z,66.83
2023-02-11T12:47:12.165Z,62.44
2023-02-11T12:48:12.141Z,65.15
2023-02-11T12:49:12.108Z,66.94
2023-02-11T12:50:12.138Z,66.35
2023-02-11T12:51:12.139Z,64.73
2023-02-11T12:52:12.106Z,66.22
2023-02-11T12:53:12.109Z,65.66
2023-02-11T12:54:12.075Z,66.97
2023-02-11T12:55:12.096Z,64.90
2023-02-11T12:56:12.069Z,67.76
2023-02-11T12:57:12.083Z,65.12
2023-02-11T12:58:12.057Z,65.99
2023-02-11T12:59:14.306Z,65.70
2023-02-11T13:00:13.033Z,67.63
2023-02-11T13:01:12.163Z,65.55
2023-02-11T13:02:12.119Z,64.60
2023-02-11T13:03:12.046Z,64.24
2023-02-11T13:04:12.009Z,66.35
2023-02-11T13:05:14.265Z,66.90
2023-02-11T13:06:13.036Z,69.07
2023-02-11T13:07:11.997Z,67.63
2023-02-11T13:08:12.002Z,68.11